Time;durP1;ratioP1;P1;durP2;ratioP2;P2;SDS_P1;SDS_P2;PMS_P1;PMS_P2;Temp;Humidity;BMP_temperature;BMP_pressure;BME280_temperature;BME280_humidity;BME280_pressure;Samples;Min_cycle;Max_cycle;Signal;HPM_P1;HPM_P2
2024/04/14 00:00:42;;;;;;;2.58;1.40;;;;;;;16.53;62.46;101676.34;5442344;26;20018;-73
2024/04/14 00:03:08;;;;;;;8.48;2.90;;;;;;;16.50;56.88;101675.88;5440388;26;20079;-73
2024/04/14 00:05:35;;;;;;;3.60;1.27;;;;;;;16.55;53.35;101669.13;5381506;26;20079;-73
2024/04/14 00:08:02;;;;;;;5.20;1.67;;;;;;;16.49;51.82;101675.06;5438990;26;20476;-73
2024/04/14 00:10:28;;;;;;;4.15;0.90;;;;;;;16.44;50.97;101674.78;5431711;26;20030;-73
2024/04/14 00:12:54;;;;;;;3.45;1.05;;;;;;;16.41;50.10;101676.94;5441557;26;19999;-74
2024/04/14 00:15:20;;;;;;;5.32;1.10;;;;;;;16.38;50.10;101674.66;5403217;26;20010;-73
2024/04/14 00:17:46;;;;;;;3.58;1.00;;;;;;;16.29;50.09;101679.97;5437601;26;20013;-73
2024/04/14 00:20:12;;;;;;;4.15;1.08;;;;;;;16.27;49.33;101679.28;5437714;26;20022;-73
2024/04/14 00:22:41;;;;;;;3.17;1.17;;;;;;;16.25;50.00;101683.88;5407308;26;20027;-73
2024/04/14 00:25:08;;;;;;;5.43;1.13;;;;;;;16.07;50.49;101678.94;5439659;26;19995;-73
2024/04/14 00:27:34;;;;;;;6.18;0.90;;;;;;;16.02;50.87;101678.59;5436286;26;20462;-73
2024/04/14 00:30:00;;;;;;;3.03;1.13;;;;;;;15.99;50.79;101676.31;5439690;26;19998;-73
2024/04/14 00:32:26;;;;;;;2.35;1.00;;;;;;;15.92;51.38;101686.66;5434621;26;20014;-73
2024/04/14 00:34:53;;;;;;;3.42;1.10;;;;;;;15.98;51.23;101682.56;5439090;26;20030;-73
2024/04/14 00:37:19;;;;;;;4.57;1.30;;;;;;;15.85;51.99;101685.72;5405475;26;20007;-73
2024/04/14 00:39:44;;;;;;;2.45;1.02;;;;;;;15.72;51.86;101688.81;5438107;26;20107;-74
2024/04/14 00:42:10;;;;;;;2.58;0.90;;;;;;;15.68;52.47;101686.72;5438989;26;20034;-73
2024/04/14 00:44:37;;;;;;;3.03;1.00;;;;;;;15.60;53.00;101689.38;5432557;26;20002;-73
2024/04/14 00:47:03;;;;;;;2.80;1.00;;;;;;;15.56;53.56;101694.13;5396463;26;20003;-73
2024/04/14 00:49:30;;;;;;;3.33;1.65;;;;;;;15.45;54.37;101697.88;5390928;26;20082;-74
2024/04/14 00:52:00;;;;;;;2.35;1.05;;;;;;;15.43;54.76;101709.50;5398112;26;20041;-72
2024/04/14 00:54:26;;;;;;;3.58;1.25;;;;;;;15.38;55.36;101700.34;5426285;26;25005;-73
2024/04/14 00:56:52;;;;;;;3.45;0.95;;;;;;;15.37;54.85;101708.38;5423549;26;20510;-73
2024/04/14 00:59:18;;;;;;;2.45;1.10;;;;;;;15.38;54.83;101704.75;5424380;26;20088;-73
2024/04/14 01:01:45;;;;;;;1.58;1.00;;;;;;;15.37;55.68;101709.16;5367244;26;20022;-73
2024/04/14 01:04:11;;;;;;;3.75;1.30;;;;;;;15.30;55.24;101704.78;5427442;26;20078;-73
2024/04/14 01:06:38;;;;;;;3.22;1.33;;;;;;;15.18;56.04;101712.09;5401242;26;20025;-73
2024/04/14 01:09:04;;;;;;;2.28;1.15;;;;;;;15.12;56.72;101710.16;5400281;26;20006;-73
2024/04/14 01:11:30;;;;;;;7.13;1.10;;;;;;;15.04;57.69;101708.38;5436206;26;20085;-73
2024/04/14 01:13:56;;;;;;;4.15;1.20;;;;;;;14.97;58.57;101713.44;5437703;26;20003;-73
2024/04/14 01:16:22;;;;;;;2.60;1.20;;;;;;;14.95;59.42;101717.19;5439998;26;20010;-73
2024/04/14 01:18:49;;;;;;;5.57;1.33;;;;;;;14.99;58.91;101713.25;5437465;26;20022;-73
2024/04/14 01:21:17;;;;;;;2.17;1.00;;;;;;;14.93;59.31;101719.94;5439350;26;20454;-73
2024/04/14 01:23:43;;;;;;;1.48;1.13;;;;;;;14.78;58.78;101718.94;5402874;26;20009;-73
2024/04/14 01:26:09;;;;;;;3.20;1.10;;;;;;;14.71;59.11;101721.41;5406763;26;19999;-73
2024/04/14 01:28:35;;;;;;;4.85;1.20;;;;;;;14.63;58.54;101731.00;5436752;26;20022;-74
2024/04/14 01:31:01;;;;;;;4.70;1.20;;;;;;;14.53;58.89;101731.13;5410478;26;19998;-73
2024/04/14 01:33:27;;;;;;;4.60;1.33;;;;;;;14.62;57.64;101732.81;5439999;26;20013;-73
2024/04/14 01:35:53;;;;;;;4.13;0.98;;;;;;;14.54;57.57;101728.34;5413349;26;20003;-73
2024/04/14 01:38:19;;;;;;;3.67;1.20;;;;;;;14.48;58.29;101733.38;5440069;26;20017;-72
2024/04/14 01:40:45;;;;;;;6.65;1.58;;;;;;;14.49;58.48;101740.25;5403393;26;20018;-73
2024/04/14 01:43:11;;;;;;;4.88;1.40;;;;;;;14.43;58.04;101741.69;5441712;26;20728;-73
2024/04/14 01:45:37;;;;;;;5.30;1.17;;;;;;;14.35;58.35;101739.03;5415259;26;20007;-73
2024/04/14 01:48:04;;;;;;;6.95;1.35;;;;;;;14.37;58.66;101748.38;5404227;26;20003;-73
2024/04/14 01:50:30;;;;;;;4.22;1.30;;;;;;;14.33;58.81;101757.47;5415029;26;20017;-73
2024/04/14 01:52:56;;;;;;;3.05;1.10;;;;;;;14.30;59.15;101762.19;5444403;26;20461;-72
2024/04/14 01:55:22;;;;;;;3.70;1.20;;;;;;;14.27;58.64;101763.31;5408481;26;20009;-73
2024/04/14 01:57:52;;;;;;;1.90;1.00;;;;;;;14.21;59.14;101753.50;5443848;26;20081;-72
2024/04/14 02:00:18;;;;;;;3.00;1.25;;;;;;;14.17;59.41;101757.41;5440751;26;20007;-73
2024/04/14 02:02:44;;;;;;;5.68;1.23;;;;;;;14.12;59.44;101763.06;5436108;26;20003;-73
2024/04/14 02:05:10;;;;;;;4.10;1.10;;;;;;;14.09;60.28;101765.19;5435300;26;20667;-73
2024/04/14 02:07:36;;;;;;;3.85;1.15;;;;;;;14.09;60.54;101771.22;5402931;26;20025;-72
2024/04/14 02:10:02;;;;;;;2.58;1.08;;;;;;;14.07;61.21;101762.75;5401609;26;20013;-72
2024/04/14 02:12:29;;;;;;;2.38;1.20;;;;;;;14.08;61.06;101768.78;5436597;26;19999;-73
2024/04/14 02:14:55;;;;;;;4.35;1.20;;;;;;;14.06;60.54;101775.94;5437735;26;20010;-73
2024/04/14 02:17:20;;;;;;;12.80;1.80;;;;;;;14.02;59.48;101778.84;5410963;26;20003;-73
2024/04/14 02:19:46;;;;;;;3.08;1.25;;;;;;;13.97;59.65;101777.66;5438953;26;20003;-73
2024/04/14 02:22:12;;;;;;;2.65;1.23;;;;;;;13.95;59.76;101775.22;5439625;26;20017;-73
2024/04/14 02:24:38;;;;;;;6.15;1.27;;;;;;;13.92;60.35;101767.72;5437190;26;20674;-73
2024/04/14 02:27:05;;;;;;;4.90;1.48;;;;;;;13.91;60.86;101771.28;5434461;26;20353;-73
2024/04/14 02:29:31;;;;;;;6.78;1.55;;;;;;;13.81;61.23;101770.59;5406215;26;19999;-73
2024/04/14 02:31:57;;;;;;;3.45;1.13;;;;;;;13.77;61.74;101764.84;5440918;26;20018;-73
2024/04/14 02:34:23;;;;;;;6.03;1.33;;;;;;;13.70;62.15;101771.66;5407631;26;20022;-73
2024/04/14 02:36:49;;;;;;;5.78;1.50;;;;;;;13.75;62.71;101771.19;5440717;26;20003;-73
2024/04/14 02:39:15;;;;;;;11.27;1.80;;;;;;;13.75;62.63;101773.78;5408099;26;20010;-72
2024/04/14 02:41:41;;;;;;;7.13;1.55;;;;;;;13.68;63.10;101770.19;5441186;26;20074;-73
2024/04/14 02:44:08;;;;;;;6.60;1.55;;;;;;;13.65;63.72;101773.06;5412861;26;20345;-73
2024/04/14 02:46:34;;;;;;;3.50;1.48;;;;;;;13.58;64.29;101780.66;5434820;26;20018;-73
2024/04/14 02:49:00;;;;;;;3.33;1.40;;;;;;;13.58;65.24;101785.88;5384105;26;20480;-73
2024/04/14 02:51:26;;;;;;;6.78;1.73;;;;;;;13.59;65.20;101780.53;5440575;26;20345;-73
2024/04/14 02:53:52;;;;;;;7.90;1.40;;;;;;;13.53;65.43;101772.50;5406407;26;20047;-73
2024/04/14 02:56:18;;;;;;;6.13;1.52;;;;;;;13.47;65.25;101786.97;5405929;26;20000;-73
2024/04/14 02:58:45;;;;;;;5.63;1.42;;;;;;;13.49;65.62;101792.03;5437960;26;20018;-73
2024/04/14 03:01:13;;;;;;;7.65;1.65;;;;;;;13.49;65.53;101786.81;5405168;26;20018;-73
2024/04/14 03:03:39;;;;;;;7.38;1.42;;;;;;;13.39;65.92;101785.13;5415461;26;20010;-72
2024/04/14 03:06:06;;;;;;;3.88;1.40;;;;;;;13.37;66.58;101784.44;5413734;26;20011;-72
2024/04/14 03:08:32;;;;;;;5.63;1.88;;;;;;;13.39;66.42;101787.72;5440756;26;20071;-73
2024/04/14 03:10:58;;;;;;;4.88;1.48;;;;;;;13.27;67.15;101785.47;5438440;26;20080;-73
2024/04/14 03:13:24;;;;;;;5.38;1.70;;;;;;;13.20;67.39;101786.06;5439502;26;20026;-73
2024/04/14 03:15:52;;;;;;;8.27;1.73;;;;;;;13.16;67.12;101787.31;5439515;26;20067;-73
2024/04/14 03:18:18;;;;;;;8.15;1.60;;;;;;;13.12;67.96;101787.75;5407281;26;20007;-73
2024/04/14 03:21:01;;;;;;;6.82;1.92;;;;;;;13.03;68.73;101792.06;5436110;26;20040;-73
2024/04/14 03:23:27;;;;;;;6.28;1.52;;;;;;;13.12;69.15;101798.19;5442597;26;20018;-73
2024/04/14 03:25:54;;;;;;;13.77;2.05;;;;;;;13.07;69.48;101798.59;5439714;26;20457;-73
2024/04/14 03:28:24;;;;;;;3.65;1.50;;;;;;;12.99;70.49;101791.53;5439229;26;20084;-74
2024/04/14 03:30:51;;;;;;;7.18;1.63;;;;;;;12.97;71.05;101796.06;5439866;26;20044;-73
2024/04/14 03:33:18;;;;;;;4.97;1.90;;;;;;;12.97;71.33;101795.25;5441973;26;20011;-72
2024/04/14 03:35:45;;;;;;;9.18;1.85;;;;;;;12.94;72.32;101791.19;5382821;26;20475;-72
2024/04/14 03:38:11;;;;;;;7.28;1.95;;;;;;;12.91;72.46;101794.06;5437903;26;19999;-72
2024/04/14 03:40:37;;;;;;;6.63;2.00;;;;;;;12.79;74.60;101792.63;5409459;26;20056;-72
2024/04/14 03:43:03;;;;;;;4.15;1.48;;;;;;;12.81;74.07;101790.72;5439410;26;20013;-72
2024/04/14 03:45:29;;;;;;;4.35;1.77;;;;;;;12.83;73.73;101794.00;5437241;26;19999;-72
2024/04/14 03:47:55;;;;;;;6.75;2.03;;;;;;;12.87;73.80;101795.34;5433996;26;20018;-72
2024/04/14 03:50:21;;;;;;;9.15;1.85;;;;;;;12.85;74.49;101797.28;5437517;26;20993;-72
2024/04/14 03:52:47;;;;;;;4.82;1.90;;;;;;;12.82;74.73;101797.53;5436736;26;20075;-73
2024/04/14 03:55:13;;;;;;;5.00;2.45;;;;;;;12.80;75.53;101795.09;5401415;26;20010;-74
2024/04/14 03:57:39;;;;;;;10.77;2.40;;;;;;;12.77;75.52;101797.16;5440217;26;20067;-73
2024/04/14 04:00:06;;;;;;;7.57;1.83;;;;;;;12.74;75.90;101802.69;5433183;26;20342;-73
2024/04/14 04:02:40;;;;;;;6.13;2.25;;;;;;;12.73;76.42;101809.63;5439193;26;20011;-73
2024/04/14 04:05:08;;;;;;;5.57;1.75;;;;;;;12.67;76.85;101807.63;5433461;26;20464;-72
2024/04/14 04:07:34;;;;;;;8.48;2.10;;;;;;;12.62;77.17;101813.28;5409930;26;20002;-73
2024/04/14 04:10:00;;;;;;;6.43;1.88;;;;;;;12.61;77.44;101808.22;5437010;26;20039;-73
2024/04/14 04:12:26;;;;;;;7.97;1.80;;;;;;;12.60;77.63;101810.00;5409873;26;20445;-73
2024/04/14 04:14:52;;;;;;;8.10;2.20;;;;;;;12.64;77.25;101808.75;5405221;26;20018;-73
2024/04/14 04:17:18;;;;;;;8.95;2.13;;;;;;;12.56;77.57;101818.22;5411312;26;20002;-74
2024/04/14 04:19:44;;;;;;;8.02;3.08;;;;;;;12.52;78.09;101817.69;5431991;26;20007;-72
2024/04/14 04:22:11;;;;;;;8.38;2.00;;;;;;;12.49;78.93;101822.34;5406693;26;20018;-73
2024/04/14 04:24:36;;;;;;;5.70;2.05;;;;;;;12.50;78.91;101826.63;5438557;26;20002;-72
2024/04/14 04:27:02;;;;;;;11.60;2.50;;;;;;;12.48;79.07;101825.94;5409764;26;19995;-72
2024/04/14 04:29:29;;;;;;;10.55;2.53;;;;;;;12.46;79.74;101833.88;5406317;26;20003;-73
2024/04/14 04:31:55;;;;;;;6.53;2.40;;;;;;;12.45;80.01;101824.44;5441595;26;20003;-73
2024/04/14 04:34:22;;;;;;;5.38;2.10;;;;;;;12.44;81.03;101831.41;5437353;26;19999;-73
2024/04/14 04:36:51;;;;;;;8.23;2.42;;;;;;;12.44;81.40;101830.59;5441347;26;20083;-72
2024/04/14 04:39:20;;;;;;;11.82;2.40;;;;;;;12.42;81.34;101835.13;5431851;26;20008;-72
2024/04/14 04:41:46;;;;;;;8.93;3.13;;;;;;;12.39;81.40;101844.03;5441825;26;20419;-72
2024/04/14 04:44:11;;;;;;;6.43;2.67;;;;;;;12.33;82.36;101847.19;5438896;26;20084;-73
2024/04/14 04:46:37;;;;;;;6.18;2.60;;;;;;;12.27;82.79;101837.38;5412760;26;20017;-72
2024/04/14 04:49:04;;;;;;;12.52;3.25;;;;;;;12.29;82.90;101843.25;5437024;26;20003;-73
2024/04/14 04:51:30;;;;;;;5.93;2.50;;;;;;;12.30;83.37;101852.72;5436502;26;20017;-73
2024/04/14 04:53:56;;;;;;;12.70;2.92;;;;;;;12.24;83.78;101854.09;5406748;26;20013;-73
2024/04/14 04:56:22;;;;;;;11.40;2.90;;;;;;;12.25;84.55;101853.13;5410654;26;19995;-73
2024/04/14 04:58:48;;;;;;;12.32;2.70;;;;;;;12.28;84.62;101854.59;5436540;26;20357;-73
2024/04/14 05:01:14;;;;;;;8.77;2.70;;;;;;;12.23;85.23;101852.44;5440555;26;20014;-72
2024/04/14 05:03:40;;;;;;;11.90;3.17;;;;;;;12.20;86.04;101855.31;5441168;26;20007;-73
2024/04/14 05:06:06;;;;;;;10.63;3.05;;;;;;;12.22;86.50;101848.22;5411657;26;20010;-72
2024/04/14 05:08:33;;;;;;;12.02;3.10;;;;;;;12.26;86.24;101849.56;5410823;26;20386;-73
2024/04/14 05:11:00;;;;;;;11.32;3.28;;;;;;;12.27;86.69;101860.78;5408593;26;20014;-73
2024/04/14 05:13:30;;;;;;;14.50;3.17;;;;;;;12.31;87.01;101859.53;5409164;26;20007;-72
2024/04/14 05:15:56;;;;;;;13.75;3.25;;;;;;;12.38;86.71;101857.19;5440792;26;20072;-73
2024/04/14 05:18:22;;;;;;;13.52;3.08;;;;;;;12.36;87.40;101852.13;5388021;26;20581;-72
2024/04/14 05:20:48;;;;;;;8.45;2.63;;;;;;;12.38;88.23;101859.78;5439593;26;20042;-73
2024/04/14 05:23:14;;;;;;;13.25;3.47;;;;;;;12.38;88.20;101859.78;5412734;26;20022;-72
2024/04/14 05:25:40;;;;;;;9.43;3.53;;;;;;;12.41;88.56;101865.53;5380457;26;19999;-72
2024/04/14 05:28:06;;;;;;;14.23;3.10;;;;;;;12.45;88.53;101863.44;5408171;26;20349;-73
2024/04/14 05:30:35;;;;;;;14.55;3.22;;;;;;;12.43;88.83;101860.16;5439666;26;20015;-73
2024/04/14 05:33:01;;;;;;;15.95;3.40;;;;;;;12.45;88.87;101874.69;5432696;26;20012;-73
2024/04/14 05:35:27;;;;;;;17.55;3.90;;;;;;;12.46;88.69;101873.72;5433874;26;20076;-73
2024/04/14 05:37:53;;;;;;;13.85;3.28;;;;;;;12.45;89.17;101874.69;5437799;26;20011;-72
2024/04/14 05:40:19;;;;;;;14.15;4.10;;;;;;;12.42;88.84;101874.97;5405535;26;19995;-72
2024/04/14 05:42:44;;;;;;;11.38;3.33;;;;;;;12.50;88.77;101871.66;5441665;26;20014;-72
2024/04/14 05:45:10;;;;;;;15.57;4.28;;;;;;;12.51;88.80;101873.31;5403214;26;20005;-73
2024/04/14 05:47:37;;;;;;;12.63;3.95;;;;;;;12.52;88.25;101872.31;5414159;26;20003;-72
2024/04/14 05:50:03;;;;;;;13.90;4.03;;;;;;;12.48;88.23;101876.19;5432579;26;20006;-73
2024/04/14 05:52:29;;;;;;;9.40;3.28;;;;;;;12.48;89.12;101885.78;5436734;26;20010;-73
2024/04/14 05:54:55;;;;;;;12.35;3.63;;;;;;;12.54;89.15;101880.81;5433177;26;20003;-73
2024/04/14 05:57:21;;;;;;;9.38;3.55;;;;;;;12.57;89.37;101888.34;5437405;26;20039;-73
2024/04/14 05:59:47;;;;;;;12.65;3.33;;;;;;;12.70;88.69;101887.22;5438449;26;20025;-72
2024/04/14 06:02:15;;;;;;;11.13;3.85;;;;;;;12.65;88.32;101882.41;5432136;26;20076;-73
2024/04/14 06:04:41;;;;;;;13.77;3.65;;;;;;;12.74;88.26;101885.94;5439937;26;20015;-73
2024/04/14 06:07:07;;;;;;;11.88;3.22;;;;;;;12.78;88.18;101879.50;5441310;26;20018;-73
2024/04/14 06:09:33;;;;;;;14.20;3.67;;;;;;;12.87;87.76;101881.22;5441313;26;20010;-72
2024/04/14 06:11:59;;;;;;;13.95;4.55;;;;;;;12.87;88.40;101889.03;5440578;26;19998;-72
2024/04/14 06:14:25;;;;;;;12.98;3.88;;;;;;;12.81;88.27;101884.41;5416296;26;20532;-73
2024/04/14 06:16:51;;;;;;;13.82;4.28;;;;;;;12.79;89.11;101881.94;5442172;26;19998;-73
2024/04/14 06:19:18;;;;;;;15.38;4.57;;;;;;;12.77;89.50;101889.09;5431866;26;20613;-73
2024/04/14 06:21:44;;;;;;;11.80;3.90;;;;;;;12.78;89.85;101888.09;5437778;26;20088;-72
2024/04/14 06:24:10;;;;;;;21.17;4.43;;;;;;;12.90;89.79;101893.94;5429953;26;20006;-73
2024/04/14 06:26:37;;;;;;;13.70;4.25;;;;;;;12.95;88.56;101891.72;5441888;26;19995;-73
2024/04/14 06:29:03;;;;;;;12.27;4.03;;;;;;;12.98;89.09;101901.06;5442506;26;19999;-73
2024/04/14 06:31:29;;;;;;;15.00;4.78;;;;;;;12.99;88.70;101897.47;5439408;26;20017;-74
2024/04/14 06:33:55;;;;;;;14.50;4.03;;;;;;;13.09;88.00;101905.22;5389163;26;20014;-73
2024/04/14 06:36:21;;;;;;;21.65;5.57;;;;;;;13.17;87.84;101900.13;5443151;26;20022;-72
2024/04/14 06:38:47;;;;;;;24.17;5.57;;;;;;;13.16;87.22;101903.69;5434480;26;20469;-73
2024/04/14 06:41:13;;;;;;;13.63;4.22;;;;;;;13.27;87.58;101903.47;5437719;26;20021;-73
2024/04/14 06:43:39;;;;;;;17.50;4.70;;;;;;;13.43;87.75;101902.88;5444194;26;20075;-74
2024/04/14 06:46:05;;;;;;;12.15;4.32;;;;;;;13.48;86.58;101905.03;5439637;26;20003;-74
2024/04/14 06:48:32;;;;;;;19.92;4.88;;;;;;;13.50;85.23;101910.91;5413608;26;20078;-73
2024/04/14 06:50:58;;;;;;;17.88;4.43;;;;;;;13.59;84.48;101910.00;5433417;26;20014;-73
2024/04/14 06:53:24;;;;;;;19.00;4.78;;;;;;;13.48;85.13;101915.44;5441169;26;20033;-74
2024/04/14 06:55:50;;;;;;;13.98;4.55;;;;;;;13.48;84.79;101907.63;5438309;26;20013;-73
2024/04/14 06:58:17;;;;;;;21.20;4.15;;;;;;;13.54;85.49;101907.03;5441241;26;20003;-73
2024/04/14 07:00:43;;;;;;;14.82;4.53;;;;;;;13.71;85.49;101902.78;5437697;26;20010;-73
2024/04/14 07:03:11;;;;;;;17.75;3.88;;;;;;;13.89;84.59;101890.56;5412311;26;20067;-73
2024/04/14 07:05:37;;;;;;;16.15;4.20;;;;;;;14.33;81.98;101900.94;5443268;26;20002;-73
2024/04/14 07:08:04;;;;;;;20.75;4.82;;;;;;;14.33;79.35;101897.53;5438468;26;20014;-73
2024/04/14 07:10:30;;;;;;;10.40;3.70;;;;;;;14.33;79.24;101907.97;5438889;26;20014;-73
2024/04/14 07:12:55;;;;;;;13.63;3.85;;;;;;;14.17;79.16;101912.09;5380507;26;20003;-73
2024/04/14 07:15:21;;;;;;;17.83;4.22;;;;;;;14.01;79.07;101922.41;5403429;26;20018;-72
2024/04/14 07:17:47;;;;;;;13.68;4.35;;;;;;;14.00;79.41;101924.22;5408940;26;20007;-74
2024/04/14 07:20:13;;;;;;;11.43;3.67;;;;;;;13.91;80.40;101919.91;5407304;26;20010;-73
2024/04/14 07:22:39;;;;;;;23.95;4.72;;;;;;;14.01;80.33;101910.22;5412020;26;20022;-73
2024/04/14 07:25:05;;;;;;;12.55;4.40;;;;;;;14.01;79.62;101910.22;5408946;26;20484;-73
2024/04/14 07:27:33;;;;;;;15.75;4.30;;;;;;;14.06;80.24;101909.75;5441222;26;20080;-74
2024/04/14 07:29:59;;;;;;;14.23;4.93;;;;;;;14.24;78.44;101914.94;5442590;26;20023;-73
2024/04/14 07:32:25;;;;;;;15.80;4.35;;;;;;;14.30;76.92;101909.09;5414505;26;20303;-73
2024/04/14 07:34:51;;;;;;;16.77;3.63;;;;;;;14.38;75.45;101918.75;5442980;26;20017;-73
2024/04/14 07:37:17;;;;;;;13.80;3.45;;;;;;;14.50;75.14;101911.50;5442989;26;20450;-73
2024/04/14 07:39:42;;;;;;;14.82;3.30;;;;;;;14.59;73.00;101926.25;5423040;26;20003;-73
2024/04/14 07:42:10;;;;;;;22.33;4.38;;;;;;;14.57;71.92;101926.41;5409090;26;20007;-73
2024/04/14 07:44:36;;;;;;;15.93;3.50;;;;;;;14.40;72.05;101924.66;5418930;26;19998;-73
2024/04/14 07:47:02;;;;;;;19.02;4.55;;;;;;;14.39;72.91;101933.44;5442744;26;20014;-73
2024/04/14 07:49:28;;;;;;;9.82;2.95;;;;;;;14.39;73.46;101930.81;5405943;26;20042;-73
2024/04/14 07:51:54;;;;;;;15.02;3.13;;;;;;;14.45;73.92;101935.44;5411054;26;20022;-73
2024/04/14 07:54:20;;;;;;;11.90;3.25;;;;;;;14.44;73.39;101943.44;5412981;26;20014;-73
2024/04/14 07:56:46;;;;;;;15.70;3.78;;;;;;;14.43;71.78;101939.16;5409359;26;20018;-73
2024/04/14 07:59:12;;;;;;;11.90;3.50;;;;;;;14.47;72.97;101949.16;5440581;26;20006;-73
2024/04/14 08:01:37;;;;;;;14.60;3.92;;;;;;;14.47;71.58;101943.94;5435636;26;20374;-73
2024/04/14 08:04:04;;;;;;;9.40;3.53;;;;;;;14.64;71.25;101944.06;5407128;26;20022;-73
2024/04/14 08:06:31;;;;;;;14.68;3.47;;;;;;;14.83;70.23;101943.84;5400143;26;20125;-73
2024/04/14 08:08:57;;;;;;;18.42;3.85;;;;;;;15.41;68.17;101941.41;5441199;26;20003;-73
2024/04/14 08:11:24;;;;;;;19.00;3.90;;;;;;;15.52;66.79;101943.72;5443562;26;20078;-73
2024/04/14 08:13:50;;;;;;;13.60;3.53;;;;;;;15.74;65.21;101942.31;5439107;26;20509;-73
2024/04/14 08:16:16;;;;;;;19.95;3.83;;;;;;;15.91;65.14;101946.56;5432177;26;20574;-73
2024/04/14 08:18:45;;;;;;;11.38;3.40;;;;;;;16.17;63.81;101950.81;5435926;26;20015;-73
2024/04/14 08:21:12;;;;;;;15.02;3.60;;;;;;;16.84;61.76;101947.91;5439137;26;20150;-74
2024/04/14 08:23:38;;;;;;;12.65;3.60;;;;;;;17.18;59.61;101944.16;5432983;26;21668;-73
2024/04/14 08:26:04;;;;;;;13.35;2.70;;;;;;;17.28;58.16;101938.72;5438503;26;20019;-73
2024/04/14 08:28:30;;;;;;;13.57;2.88;;;;;;;17.55;56.21;101941.81;5437236;26;20079;-74
2024/04/14 08:30:55;;;;;;;9.63;2.13;;;;;;;17.58;54.80;101941.47;5438782;26;20018;-73
2024/04/14 08:33:21;;;;;;;10.80;3.20;;;;;;;17.77;53.71;101945.44;5406984;26;20018;-73
2024/04/14 08:35:47;;;;;;;11.90;2.95;;;;;;;17.80;53.14;101940.66;5405400;26;20394;-73
2024/04/14 08:38:13;;;;;;;8.55;2.65;;;;;;;18.03;51.77;101943.28;5407050;26;20019;-73
2024/04/14 08:40:39;;;;;;;9.85;1.60;;;;;;;18.28;51.29;101943.84;5440954;26;20019;-73
2024/04/14 08:43:06;;;;;;;16.27;5.90;;;;;;;18.16;52.18;101947.91;5412898;26;20061;-73
2024/04/14 08:45:33;;;;;;;8.45;1.52;;;;;;;18.56;50.83;101945.06;5409881;26;20091;-73
2024/04/14 08:48:03;;;;;;;10.52;2.50;;;;;;;18.54;49.91;101947.88;5408778;26;20083;-74
2024/04/14 08:50:30;;;;;;;11.25;2.08;;;;;;;19.01;48.43;101951.94;5405886;26;20007;-73
2024/04/14 08:52:56;;;;;;;12.02;2.58;;;;;;;19.31;48.58;101957.13;5440823;26;20003;-74
2024/04/14 08:55:22;;;;;;;10.35;2.83;;;;;;;19.45;48.97;101942.28;5410021;26;20015;-74
2024/04/14 08:57:48;;;;;;;12.35;2.22;;;;;;;19.77;46.25;101948.09;5443527;26;20018;-74
2024/04/14 09:00:20;;;;;;;19.50;6.10;;;;;;;19.82;45.34;101957.03;5406542;26;20026;-73
2024/04/14 09:02:46;;;;;;;7.97;2.33;;;;;;;19.78;45.05;101949.72;5437871;26;20021;-74
2024/04/14 09:05:16;;;;;;;7.72;1.30;;;;;;;18.99;45.51;101946.03;5412578;26;20080;-74
2024/04/14 09:07:45;;;;;;;8.50;1.88;;;;;;;19.13;46.26;101954.09;5441706;26;20007;-73
2024/04/14 09:10:11;;;;;;;4.63;1.10;;;;;;;18.59;46.40;101942.06;5407478;26;20017;-74
2024/04/14 09:12:37;;;;;;;8.55;1.60;;;;;;;18.09;46.69;101945.19;5443861;26;20003;-73
2024/04/14 09:15:06;;;;;;;5.38;1.38;;;;;;;18.27;48.61;101950.09;5435935;26;20002;-74
2024/04/14 09:17:33;;;;;;;9.25;1.63;;;;;;;18.56;47.83;101948.50;5437093;26;20011;-74
2024/04/14 09:19:59;;;;;;;9.52;1.80;;;;;;;18.45;46.33;101944.50;5410018;26;20007;-74
2024/04/14 09:22:25;;;;;;;9.73;1.60;;;;;;;18.34;46.87;101947.56;5439385;26;20516;-75
2024/04/14 09:24:51;;;;;;;7.05;1.75;;;;;;;18.26;48.48;101951.09;5416097;26;20022;-74
2024/04/14 09:27:17;;;;;;;9.20;1.38;;;;;;;17.74;48.22;101959.69;5445706;26;20878;-73
2024/04/14 09:29:43;;;;;;;4.22;1.10;;;;;;;17.91;47.64;101952.53;5409754;26;20030;-74
2024/04/14 09:32:09;;;;;;;7.45;1.52;;;;;;;18.02;48.28;101954.75;5416492;26;20006;-74
2024/04/14 09:34:41;;;;;;;8.43;1.60;;;;;;;17.73;50.34;101968.56;5403413;26;20022;-73
2024/04/14 09:37:15;;;;;;;6.57;1.30;;;;;;;17.88;49.17;101966.84;5401671;26;20405;-74
2024/04/14 09:39:43;;;;;;;9.68;1.80;;;;;;;17.86;49.10;101974.06;5413043;26;20671;-74
2024/04/14 09:42:09;;;;;;;8.23;1.45;;;;;;;17.92;49.34;101966.50;5435179;26;20010;-74
2024/04/14 09:44:36;;;;;;;9.77;1.67;;;;;;;17.87;49.47;101967.81;5445050;26;20010;-74
2024/04/14 09:47:03;;;;;;;8.73;1.70;;;;;;;18.42;50.28;101952.75;5445484;26;20002;-73
2024/04/14 09:49:32;;;;;;;9.98;1.85;;;;;;;18.29;46.95;101952.56;5444448;26;20072;-74
2024/04/14 09:51:58;;;;;;;7.63;2.25;;;;;;;18.71;47.32;101958.19;5446869;26;20079;-74
2024/04/14 09:54:28;;;;;;;10.48;1.90;;;;;;;18.96;47.60;101964.78;5446230;26;20010;-73
2024/04/14 09:56:54;;;;;;;7.03;1.63;;;;;;;18.45;47.52;101951.56;5444351;26;20018;-74
2024/04/14 09:59:20;;;;;;;7.28;1.67;;;;;;;18.68;48.00;101960.19;5444529;26;20697;-73
2024/04/14 10:01:47;;;;;;;7.15;1.40;;;;;;;19.02;48.50;101945.69;5445604;26;20029;-73
2024/04/14 10:04:14;;;;;;;7.97;1.60;;;;;;;18.68;48.67;101948.84;5413999;26;20091;-74
2024/04/14 10:06:41;;;;;;;8.27;2.20;;;;;;;18.62;49.39;101952.22;5412541;26;19999;-73
2024/04/14 10:09:11;;;;;;;10.13;1.90;;;;;;;18.92;48.89;101954.84;5446854;26;20006;-72
2024/04/14 10:11:37;;;;;;;7.35;1.67;;;;;;;18.80;48.33;101950.06;5417581;26;20014;-72
2024/04/14 10:14:03;;;;;;;10.70;1.95;;;;;;;18.59;48.16;101947.31;5405787;26;20365;-72
2024/04/14 10:16:29;;;;;;;5.93;1.80;;;;;;;18.43;48.34;101943.88;5440845;26;20369;-73
2024/04/14 10:19:03;;;;;;;6.93;2.28;;;;;;;18.55;49.63;101944.22;5443062;26;20011;-72
2024/04/14 10:21:29;;;;;;;7.25;1.63;;;;;;;19.00;49.96;101955.53;5409551;26;20002;-73
2024/04/14 10:23:56;;;;;;;14.52;6.55;;;;;;;19.18;47.41;101946.47;5413409;26;20497;-72
2024/04/14 10:26:22;;;;;;;20.02;7.93;;;;;;;18.92;48.48;101955.66;5408553;26;20530;-72
2024/04/14 10:28:53;;;;;;;24.38;10.85;;;;;;;18.76;48.80;101953.19;5441048;26;20116;-72
2024/04/14 10:31:26;;;;;;;10.63;3.20;;;;;;;18.77;49.16;101957.47;5413623;26;20468;-72
2024/04/14 10:34:10;;;;;;;6.95;1.58;;;;;;;18.78;49.79;101949.41;5439229;26;20083;-72
2024/04/14 10:36:42;;;;;;;11.48;1.95;;;;;;;18.74;48.90;101945.50;5442811;26;20358;-73
2024/04/14 10:39:14;;;;;;;11.00;1.83;;;;;;;18.33;48.91;101956.44;5410915;26;20582;-72
2024/04/14 10:41:40;;;;;;;7.45;1.83;;;;;;;18.23;49.60;101954.09;5444571;26;20003;-72
2024/04/14 10:44:18;;;;;;;11.02;2.67;;;;;;;18.39;48.53;101954.91;5441526;26;20018;-72
2024/04/14 10:46:48;;;;;;;2.63;1.00;;;;;;;18.66;49.31;101953.47;5408751;26;20065;-72
2024/04/14 10:49:15;;;;;;;6.43;2.05;;;;;;;18.64;49.55;101950.22;5402192;26;20380;-72
2024/04/14 10:51:42;;;;;;;7.68;1.30;;;;;;;18.48;47.81;101949.41;5435012;26;20017;-72
2024/04/14 10:54:08;;;;;;;5.22;1.80;;;;;;;18.20;48.93;101951.81;5447775;26;20073;-72
2024/04/14 10:56:34;;;;;;;6.47;1.23;;;;;;;18.12;48.85;101953.69;5417663;26;20003;-72
2024/04/14 10:59:00;;;;;;;6.95;1.33;;;;;;;17.81;48.91;101958.00;5406120;26;20022;-72
2024/04/14 11:01:27;;;;;;;5.07;1.27;;;;;;;18.00;50.47;101956.72;5435402;26;20004;-72
2024/04/14 11:03:55;;;;;;;6.63;0.98;;;;;;;18.09;49.27;101939.94;5442532;26;20011;-72
2024/04/14 11:06:21;;;;;;;8.60;1.45;;;;;;;18.19;49.19;101950.16;5409285;26;20084;-72
2024/04/14 11:08:47;;;;;;;8.55;1.40;;;;;;;18.23;48.61;101943.59;5413086;26;20021;-74
2024/04/14 11:11:14;;;;;;;4.70;1.25;;;;;;;18.01;47.61;101949.69;5445059;26;20498;-73
2024/04/14 11:13:42;;;;;;;6.40;1.63;;;;;;;18.39;49.27;101950.47;5414593;26;20007;-74
2024/04/14 11:16:08;;;;;;;7.47;1.35;;;;;;;18.43;47.86;101946.50;5407553;26;22784;-73
2024/04/14 11:18:37;;;;;;;8.52;1.50;;;;;;;18.47;46.18;101947.75;5441083;26;20088;-73